This is the latest recevied weather packets stored in our database for station/object N9UMJ-12. If no packets are shown the sender has not sent any weather packets the latest 10 day(s).
| Time | Temp. | Humidity | Pressure | Rain* | Wind** | Luminosity | Snow |
|---|---|---|---|---|---|---|---|
| 1777367728 | 15° C | 99% | 1011.6 hPa | 0 mm | - | 0 W/m² | - |
| 1777359951 | 15° C | 99% | 1009.8 hPa | 0 mm | - | 0 W/m² | - |
| 1777356932 | 15.56° C | 99% | 1010 hPa | 0 mm | - | 0 W/m² | - |
| 1777354538 | 15.56° C | 98% | 1010.3 hPa | 1.78 mm | - | 0 W/m² | - |
| 1777350918 | 15.56° C | 97% | 1010.4 hPa | 28.7 mm | - | 0 W/m² | - |
| 1777347322 | 16.67° C | 97% | 1009.4 hPa | 7.37 mm | - | 0 W/m² | - |
| 1777346123 | 16.67° C | 98% | 1009.3 hPa | 17.02 mm | - | 0 W/m² | - |
| 1777345520 | 16.67° C | 98% | 1008.8 hPa | 19.3 mm | - | 0 W/m² | - |
| 1777344923 | 16.67° C | 97% | 1009.6 hPa | 22.35 mm | - | 0 W/m² | - |
| 1777335339 | 16.67° C | 98% | 1009.5 hPa | 12.45 mm | - | 0 W/m² | - |
| 1777331722 | 16.11° C | 98% | 1012 hPa | 24.89 mm | - | 1 W/m² | - |
| 1777331120 | 16.11° C | 98% | 1010.5 hPa | 23.37 mm | - | 1 W/m² | - |
| 1777330520 | 16.11° C | 98% | 1010.9 hPa | 28.19 mm | - | 2 W/m² | - |
| 1777329940 | 16.11° C | 98% | 1011 hPa | 32 mm | - | 3 W/m² | - |
| 1777325718 | 15.56° C | 98% | 1011.8 hPa | 35.56 mm | - | 5 W/m² | - |
| 1777323319 | 15.56° C | 96% | 1012.2 hPa | 22.86 mm | - | 2 W/m² | - |
| 1777322119 | 17.22° C | 93% | 1011.6 hPa | 3.81 mm | - | 1 W/m² | - |
| 1777313741 | 18.33° C | 86% | 1011.3 hPa | 2.03 mm | - | 37 W/m² | - |
| 1777312518 | 18.89° C | 82% | 1011.8 hPa | 1.27 mm | - | 47 W/m² | - |
| 1777309560 | 20.56° C | 73% | 1013.2 hPa | 0 mm | - | 171 W/m² | - |
| 1777308919 | 20.56° C | 74% | 1014.1 hPa | 0 mm | - | 219 W/m² | - |
| 1777307720 | 20.56° C | 74% | 1013.7 hPa | 0 mm | - | 166 W/m² | - |
| 1777297522 | 15.56° C | 82% | 1015 hPa | 0 mm | - | 164 W/m² | - |
| 1777296922 | 15° C | 83% | 1015.1 hPa | 0 mm | - | 178 W/m² | - |
| 1777295132 | 14.44° C | 85% | 1015 hPa | 0 mm | - | 125 W/m² | - |
* Rain latest hour (hover to see other rain measurements)
** Current wind speed in m/s (hover to see current wind gust speed)